createdAt,value
2023-01-19T00:01:08.665Z,8.10
2023-01-19T00:03:37.141Z,8.12
2023-01-19T00:06:06.343Z,8.08
2023-01-19T00:08:34.985Z,8.11
2023-01-19T00:11:03.396Z,8.11
2023-01-19T00:13:30.935Z,8.12
2023-01-19T00:15:59.573Z,8.14
2023-01-19T00:18:27.470Z,8.14
2023-01-19T00:20:55.258Z,8.10
2023-01-19T00:23:23.168Z,7.99
2023-01-19T00:25:51.334Z,8.03
2023-01-19T00:28:19.344Z,8.05
2023-01-19T00:30:47.155Z,8.02
2023-01-19T00:33:15.410Z,7.99
2023-01-19T00:35:43.176Z,7.93
2023-01-19T00:38:11.870Z,7.91
2023-01-19T00:40:39.796Z,7.88
2023-01-19T00:43:07.399Z,7.84
2023-01-19T00:45:35.139Z,7.75
2023-01-19T00:48:03.002Z,7.74
2023-01-19T00:50:32.069Z,7.60
2023-01-19T00:53:01.473Z,7.56
2023-01-19T00:55:30.508Z,7.57
2023-01-19T00:57:58.350Z,7.59
2023-01-19T01:00:26.492Z,7.56
2023-01-19T01:02:54.629Z,7.59
2023-01-19T01:05:22.435Z,7.55
2023-01-19T01:07:50.802Z,7.45
2023-01-19T01:10:21.207Z,7.50
2023-01-19T01:13:20.554Z,7.46
2023-01-19T01:15:37.114Z,7.41
2023-01-19T01:18:04.684Z,7.40
2023-01-19T01:20:34.725Z,7.40
2023-01-19T01:23:03.667Z,7.41
2023-01-19T01:25:31.605Z,7.41
2023-01-19T01:27:59.111Z,7.41
2023-01-19T01:30:26.938Z,7.35
2023-01-19T01:32:54.966Z,7.39
2023-01-19T01:35:22.444Z,7.37
2023-01-19T01:37:50.313Z,7.31
2023-01-19T01:40:19.391Z,7.33
2023-01-19T01:42:46.960Z,7.34
2023-01-19T01:45:29.889Z,7.32
2023-01-19T01:48:10.876Z,7.30
2023-01-19T01:51:25.292Z,7.30
2023-01-19T01:54:09.348Z,7.29
2023-01-19T01:56:43.816Z,7.24
2023-01-19T01:59:29.458Z,7.27
2023-01-19T02:02:18.896Z,7.22
2023-01-19T02:04:50.702Z,7.25
2023-01-19T02:07:43.115Z,7.20
2023-01-19T02:10:29.754Z,7.09
2023-01-19T02:13:15.933Z,6.94
2023-01-19T02:15:45.172Z,6.92
2023-01-19T02:18:12.708Z,7.00
2023-01-19T02:20:43.502Z,7.02
2023-01-19T02:23:17.002Z,7.02
2023-01-19T02:25:44.689Z,7.05
2023-01-19T02:28:12.950Z,7.06
2023-01-19T02:30:41.289Z,7.07
2023-01-19T02:33:09.174Z,7.07
2023-01-19T02:35:38.068Z,7.08
2023-01-19T02:38:06.616Z,7.09
2023-01-19T02:40:34.511Z,7.07
2023-01-19T02:43:03.416Z,7.01
2023-01-19T02:45:31.215Z,6.92
2023-01-19T02:47:58.926Z,6.92
2023-01-19T02:50:49.236Z,6.96
2023-01-19T02:53:47.746Z,6.98
2023-01-19T02:56:25.096Z,7.01
2023-01-19T02:59:30.098Z,7.04
2023-01-19T03:02:02.187Z,7.02
2023-01-19T03:04:37.489Z,7.06
2023-01-19T03:07:28.922Z,7.06
2023-01-19T03:10:07.095Z,7.02
2023-01-19T03:12:42.808Z,7.04
2023-01-19T03:15:23.269Z,7.06
2023-01-19T03:17:52.109Z,7.06
2023-01-19T03:20:25.613Z,7.06
2023-01-19T03:22:59.308Z,7.07
2023-01-19T03:25:28.329Z,7.07
2023-01-19T03:27:57.723Z,7.06
2023-01-19T03:30:29.178Z,7.06
2023-01-19T03:33:01.706Z,7.04
2023-01-19T03:35:32.300Z,7.00
2023-01-19T03:38:01.309Z,7.02
2023-01-19T03:40:30.691Z,7.01
2023-01-19T03:43:00.219Z,7.00
2023-01-19T03:45:28.302Z,6.99
2023-01-19T03:47:55.889Z,6.93
2023-01-19T03:50:27.284Z,6.97
2023-01-19T03:53:22.704Z,6.92
2023-01-19T03:55:51.544Z,6.86
2023-01-19T03:58:19.342Z,6.83
2023-01-19T04:00:47.011Z,6.81
2023-01-19T04:03:16.492Z,6.84
2023-01-19T04:05:44.621Z,6.83
2023-01-19T04:08:13.035Z,6.84
2023-01-19T04:10:40.915Z,6.85
2023-01-19T04:13:08.567Z,6.84
2023-01-19T04:15:36.180Z,6.81
2023-01-19T04:18:05.256Z,6.82
2023-01-19T04:20:34.044Z,6.83
2023-01-19T04:23:02.426Z,6.80
2023-01-19T04:25:30.450Z,6.76
2023-01-19T04:27:58.545Z,6.75
2023-01-19T04:30:27.530Z,6.68
2023-01-19T04:32:58.756Z,6.75
2023-01-19T04:35:26.552Z,6.72
2023-01-19T04:37:54.233Z,6.75
2023-01-19T04:40:22.336Z,6.79
2023-01-19T04:42:50.292Z,6.75
2023-01-19T04:45:18.113Z,6.73
2023-01-19T04:47:45.934Z,6.78
2023-01-19T04:50:13.457Z,6.72
2023-01-19T04:52:40.984Z,6.74
2023-01-19T04:55:09.625Z,6.74
2023-01-19T04:57:37.164Z,6.66
2023-01-19T05:00:06.924Z,6.72
2023-01-19T05:02:35.061Z,6.74
2023-01-19T05:05:03.329Z,6.66
2023-01-19T05:07:30.934Z,6.63
2023-01-19T05:09:58.779Z,6.62
2023-01-19T05:12:26.456Z,6.55
2023-01-19T05:14:53.941Z,6.61
2023-01-19T05:17:22.551Z,6.50
2023-01-19T05:19:50.047Z,6.49
2023-01-19T05:22:17.692Z,6.51
2023-01-19T05:24:45.592Z,6.51
2023-01-19T05:27:13.102Z,6.52
2023-01-19T05:29:40.837Z,6.45
2023-01-19T05:32:09.223Z,6.43
2023-01-19T05:34:37.072Z,6.42
2023-01-19T05:37:04.746Z,6.39
2023-01-19T05:39:33.537Z,6.37
2023-01-19T05:42:01.136Z,6.35
2023-01-19T05:44:28.763Z,6.28
2023-01-19T05:46:56.570Z,6.26
2023-01-19T05:49:24.340Z,6.23
2023-01-19T05:51:52.322Z,6.24
2023-01-19T05:54:20.278Z,6.19
2023-01-19T05:56:47.865Z,6.12
2023-01-19T05:59:17.554Z,6.14
2023-01-19T06:01:45.965Z,6.11
2023-01-19T06:04:14.207Z,6.08
2023-01-19T06:06:41.800Z,6.22
2023-01-19T06:09:09.624Z,6.09
2023-01-19T06:11:38.358Z,6.13
2023-01-19T06:14:05.963Z,6.13
2023-01-19T06:16:33.663Z,6.31
2023-01-19T06:19:01.618Z,6.20
2023-01-19T06:21:29.323Z,6.08
2023-01-19T06:23:56.932Z,6.06
2023-01-19T06:26:25.543Z,6.01
2023-01-19T06:28:53.283Z,6.01
2023-01-19T06:31:21.007Z,5.99
2023-01-19T06:33:48.910Z,6.03
2023-01-19T06:36:16.475Z,5.91
2023-01-19T06:38:44.409Z,5.91
2023-01-19T06:41:12.541Z,5.85
2023-01-19T06:43:40.172Z,5.80
2023-01-19T06:46:07.913Z,5.79
2023-01-19T06:48:35.902Z,5.73
2023-01-19T06:51:03.444Z,5.73
2023-01-19T06:53:30.951Z,5.75
2023-01-19T06:56:01.233Z,5.72
2023-01-19T06:58:29.522Z,5.64
2023-01-19T07:01:04.263Z,5.67
2023-01-19T07:03:33.362Z,5.67
2023-01-19T07:06:06.687Z,5.57
2023-01-19T07:08:38.457Z,5.58
2023-01-19T07:11:22.266Z,5.58
2023-01-19T07:13:56.945Z,5.60
2023-01-19T07:16:24.851Z,5.57
2023-01-19T07:18:52.354Z,5.52
2023-01-19T07:21:20.529Z,5.55
2023-01-19T07:23:49.416Z,5.53
2023-01-19T07:26:19.973Z,5.58
2023-01-19T07:28:48.889Z,5.60
2023-01-19T07:31:17.919Z,5.49
2023-01-19T07:33:46.657Z,5.45
2023-01-19T07:36:15.098Z,5.46
2023-01-19T07:38:42.788Z,5.49
2023-01-19T07:41:11.094Z,5.42
2023-01-19T07:43:40.136Z,5.42
2023-01-19T07:46:11.281Z,5.40
2023-01-19T07:48:41.905Z,5.28
2023-01-19T07:51:12.953Z,5.33
2023-01-19T07:53:42.051Z,5.38
2023-01-19T07:56:10.395Z,5.52
2023-01-19T07:58:38.998Z,5.42
2023-01-19T08:01:11.643Z,5.43
2023-01-19T08:03:40.229Z,5.43
2023-01-19T08:06:07.839Z,5.45
2023-01-19T08:08:35.450Z,5.29
2023-01-19T08:11:03.300Z,5.31
2023-01-19T08:13:30.856Z,5.25
2023-01-19T08:15:58.394Z,5.26
2023-01-19T08:18:26.244Z,5.24
2023-01-19T08:20:54.580Z,5.18
2023-01-19T08:23:22.305Z,5.19
2023-01-19T08:25:50.134Z,5.16
2023-01-19T08:28:19.008Z,5.13
2023-01-19T08:30:53.988Z,5.21
2023-01-19T08:33:23.303Z,5.27
2023-01-19T08:35:52.960Z,5.35
2023-01-19T08:38:20.762Z,5.44
2023-01-19T08:40:48.889Z,5.48
2023-01-19T08:43:17.465Z,5.60
2023-01-19T08:45:52.417Z,5.57
2023-01-19T08:48:24.741Z,5.45
2023-01-19T08:50:53.179Z,5.47
2023-01-19T08:53:23.735Z,5.34
2023-01-19T08:55:59.847Z,5.43
2023-01-19T08:58:28.456Z,5.49
2023-01-19T09:00:56.426Z,5.55
2023-01-19T09:03:24.175Z,5.56
2023-01-19T09:05:52.212Z,5.48
2023-01-19T09:08:20.415Z,5.78
2023-01-19T09:10:49.803Z,5.72
2023-01-19T09:13:19.194Z,5.49
2023-01-19T09:15:47.206Z,5.39
2023-01-19T09:18:17.954Z,5.40
2023-01-19T09:20:49.105Z,5.55
2023-01-19T09:23:18.801Z,5.93
2023-01-19T09:25:47.381Z,5.48
2023-01-19T09:28:17.903Z,5.38
2023-01-19T09:30:45.856Z,5.37
2023-01-19T09:33:15.522Z,5.32
2023-01-19T09:35:44.255Z,5.19
2023-01-19T09:38:13.191Z,5.35
2023-01-19T09:41:00.112Z,5.18
2023-01-19T09:43:47.909Z,5.28
2023-01-19T09:46:20.297Z,5.36
2023-01-19T09:48:52.186Z,5.32
2023-01-19T09:51:20.766Z,5.33
2023-01-19T09:54:04.271Z,5.32
2023-01-19T09:56:32.240Z,5.44
2023-01-19T09:59:00.817Z,5.33
2023-01-19T10:01:40.597Z,5.35
2023-01-19T10:04:22.173Z,5.23
2023-01-19T10:06:50.398Z,5.40
2023-01-19T10:09:33.450Z,5.19
2023-01-19T10:12:23.411Z,5.19
2023-01-19T10:15:05.158Z,5.16
2023-01-19T10:17:42.347Z,5.20
2023-01-19T10:20:18.080Z,5.16
2023-01-19T10:22:49.199Z,5.18
2023-01-19T10:25:23.872Z,5.21
2023-01-19T10:27:51.892Z,5.35
2023-01-19T10:30:25.390Z,5.42
2023-01-19T10:32:53.713Z,5.54
2023-01-19T10:35:26.203Z,5.55
2023-01-19T10:37:59.228Z,5.27
2023-01-19T10:40:51.070Z,5.16
2023-01-19T10:43:40.140Z,5.10
2023-01-19T10:46:17.378Z,5.11
2023-01-19T10:48:48.467Z,5.25
2023-01-19T10:51:17.617Z,5.25
2023-01-19T10:53:55.428Z,5.33
2023-01-19T10:56:40.425Z,5.35
2023-01-19T10:59:33.354Z,5.31
2023-01-19T11:02:16.776Z,5.31
2023-01-19T11:04:48.212Z,5.35
2023-01-19T11:07:27.600Z,5.39
2023-01-19T11:10:17.502Z,5.33
2023-01-19T11:13:07.648Z,5.26
2023-01-19T11:15:45.142Z,5.12
2023-01-19T11:18:27.440Z,5.03
2023-01-19T11:21:06.529Z,4.99
2023-01-19T11:23:42.004Z,4.91
2023-01-19T11:26:32.178Z,4.81
2023-01-19T11:29:01.922Z,4.76
2023-01-19T11:31:31.369Z,4.57
2023-01-19T11:34:20.883Z,4.52
2023-01-19T11:37:03.375Z,4.37
2023-01-19T11:39:35.413Z,4.37
2023-01-19T11:42:05.332Z,4.31
2023-01-19T11:44:43.843Z,4.22
2023-01-19T11:47:49.294Z,4.29
2023-01-19T11:50:32.042Z,4.17
2023-01-19T11:53:38.645Z,4.21
2023-01-19T11:56:11.423Z,4.27
2023-01-19T11:58:48.014Z,4.26
2023-01-19T12:01:22.424Z,4.17
2023-01-19T12:03:54.765Z,4.17
2023-01-19T12:06:26.736Z,4.24
2023-01-19T12:09:11.902Z,4.26
2023-01-19T12:11:47.409Z,4.43
2023-01-19T12:14:25.269Z,4.32
2023-01-19T12:16:58.159Z,4.24
2023-01-19T12:19:37.366Z,4.32
2023-01-19T12:22:14.452Z,4.31
2023-01-19T12:24:49.749Z,4.33
2023-01-19T12:27:26.275Z,4.37
2023-01-19T12:30:32.891Z,4.43
2023-01-19T12:33:20.475Z,4.50
2023-01-19T12:36:24.370Z,4.63
2023-01-19T12:39:03.573Z,4.53
2023-01-19T12:41:39.207Z,4.35
2023-01-19T12:44:09.750Z,4.39
2023-01-19T12:46:58.156Z,4.32
2023-01-19T12:49:35.076Z,4.37
2023-01-19T12:52:25.035Z,4.41
2023-01-19T12:55:02.258Z,4.35
2023-01-19T12:57:52.012Z,4.42
2023-01-19T13:00:26.735Z,4.40
2023-01-19T13:03:07.189Z,4.08
2023-01-19T13:05:41.983Z,4.18
2023-01-19T13:08:12.723Z,4.08
2023-01-19T13:11:05.491Z,3.78
2023-01-19T13:13:50.424Z,3.76
2023-01-19T13:16:18.104Z,3.90
2023-01-19T13:18:55.110Z,3.78
2023-01-19T13:21:39.418Z,3.73
2023-01-19T13:24:12.093Z,3.67
2023-01-19T13:27:03.674Z,3.62
2023-01-19T13:29:38.130Z,3.55
2023-01-19T13:32:18.811Z,3.67
2023-01-19T13:34:52.134Z,3.43
2023-01-19T13:37:24.522Z,3.55
2023-01-19T13:39:54.197Z,3.57
2023-01-19T13:42:33.536Z,3.41
2023-01-19T13:45:07.267Z,3.50
2023-01-19T13:47:42.151Z,3.48
2023-01-19T13:50:19.864Z,3.37
2023-01-19T13:52:49.027Z,3.42
2023-01-19T13:55:18.841Z,3.20
2023-01-19T13:57:48.691Z,3.12
2023-01-19T14:00:19.130Z,3.21
2023-01-19T14:03:00.245Z,3.12
2023-01-19T14:05:38.159Z,3.01
2023-01-19T14:08:11.302Z,2.97
2023-01-19T14:10:44.527Z,2.82
2023-01-19T14:13:17.400Z,2.84
2023-01-19T14:19:21.431Z,2.71
2023-01-19T14:22:05.300Z,2.59
2023-01-19T14:24:33.366Z,2.63
2023-01-19T14:27:18.906Z,2.70
2023-01-19T14:29:50.038Z,2.62
2023-01-19T14:32:22.956Z,2.69
2023-01-19T14:35:05.755Z,2.58
2023-01-19T14:37:38.064Z,2.63
2023-01-19T14:40:08.924Z,2.75
2023-01-19T14:43:00.120Z,2.73
2023-01-19T14:45:30.950Z,2.69
2023-01-19T14:48:03.736Z,2.70
2023-01-19T14:50:39.699Z,2.77
2023-01-19T14:53:19.515Z,2.71
2023-01-19T14:55:52.972Z,2.60
2023-01-19T14:58:22.844Z,2.65
2023-01-19T15:00:50.781Z,2.63
2023-01-19T15:03:18.305Z,2.57
2023-01-19T15:05:46.717Z,2.62
2023-01-19T15:08:27.785Z,2.56
2023-01-19T15:10:56.483Z,2.55
2023-01-19T15:13:25.919Z,2.60
2023-01-19T15:15:53.827Z,2.58
2023-01-19T15:18:26.590Z,2.60
2023-01-19T15:21:02.806Z,2.60
2023-01-19T15:23:31.392Z,2.59
2023-01-19T15:26:00.780Z,2.61
2023-01-19T15:28:28.707Z,2.59
2023-01-19T15:30:58.504Z,2.60
2023-01-19T15:33:29.496Z,2.57
2023-01-19T15:35:57.740Z,2.55
2023-01-19T15:38:26.629Z,2.56
2023-01-19T15:40:54.217Z,2.57
2023-01-19T15:43:22.049Z,2.56
2023-01-19T15:45:51.031Z,2.58
2023-01-19T15:48:19.989Z,2.62
2023-01-19T15:50:48.079Z,2.54
2023-01-19T15:53:18.406Z,2.51
2023-01-19T15:55:49.556Z,2.52
2023-01-19T15:58:18.629Z,2.47
2023-01-19T16:00:46.345Z,2.52
2023-01-19T16:03:14.417Z,2.53
2023-01-19T16:05:43.390Z,2.52
2023-01-19T16:08:11.810Z,2.53
2023-01-19T16:10:40.861Z,2.52
2023-01-19T16:13:10.513Z,2.57
2023-01-19T16:15:39.333Z,2.54
2023-01-19T16:18:07.504Z,2.62
2023-01-19T16:20:35.122Z,2.55
2023-01-19T16:23:14.608Z,2.59
2023-01-19T16:25:43.329Z,2.60
2023-01-19T16:28:11.047Z,2.62
2023-01-19T16:30:38.727Z,2.65
2023-01-19T16:33:06.689Z,2.66
2023-01-19T16:35:34.263Z,2.76
2023-01-19T16:38:01.804Z,2.67
2023-01-19T16:40:29.650Z,2.66
2023-01-19T16:42:57.928Z,2.62
2023-01-19T16:45:25.497Z,2.70
2023-01-19T16:47:53.261Z,2.67
2023-01-19T16:50:20.867Z,2.73
2023-01-19T16:52:50.704Z,2.66
2023-01-19T16:55:18.635Z,2.68
2023-01-19T16:57:46.401Z,2.64
2023-01-19T17:00:14.391Z,2.62
2023-01-19T17:02:43.190Z,2.70
2023-01-19T17:05:11.322Z,2.69
2023-01-19T17:07:39.027Z,2.70
2023-01-19T17:10:07.886Z,2.70
2023-01-19T17:12:35.408Z,2.72
2023-01-19T17:15:03.113Z,2.69
2023-01-19T17:17:31.226Z,2.60
2023-01-19T17:20:00.184Z,2.58
2023-01-19T17:22:28.072Z,2.61
2023-01-19T17:24:56.586Z,2.58
2023-01-19T17:27:24.474Z,2.63
2023-01-19T17:29:52.329Z,2.63
2023-01-19T17:32:20.892Z,2.62
2023-01-19T17:34:49.598Z,2.62
2023-01-19T17:37:17.127Z,2.60
2023-01-19T17:39:45.181Z,2.56
2023-01-19T17:42:12.767Z,2.54
2023-01-19T17:44:42.418Z,2.51
2023-01-19T17:47:10.519Z,2.57
2023-01-19T17:49:38.170Z,2.54
2023-01-19T17:52:06.067Z,2.54
2023-01-19T17:54:34.401Z,2.56
2023-01-19T17:57:02.011Z,2.58
2023-01-19T17:59:29.856Z,2.56
2023-01-19T18:01:58.177Z,2.55
2023-01-19T18:04:26.249Z,2.48
2023-01-19T18:06:54.109Z,2.53
2023-01-19T18:09:21.696Z,2.48
2023-01-19T18:11:49.864Z,2.46
2023-01-19T18:14:17.613Z,2.47
2023-01-19T18:16:45.323Z,2.47
2023-01-19T18:19:13.523Z,2.42
2023-01-19T18:21:42.760Z,2.38
2023-01-19T18:24:10.654Z,2.47
2023-01-19T18:26:38.977Z,2.36
2023-01-19T18:29:07.102Z,2.34
2023-01-19T18:31:35.029Z,2.40
2023-01-19T18:34:03.276Z,2.46
2023-01-19T18:36:34.401Z,2.36
2023-01-19T18:39:02.651Z,2.33
2023-01-19T18:41:30.836Z,2.31
2023-01-19T18:43:59.613Z,2.28
2023-01-19T18:46:27.618Z,2.28
2023-01-19T18:48:55.787Z,2.31
2023-01-19T18:51:23.673Z,2.31
2023-01-19T18:53:51.661Z,2.32
2023-01-19T18:56:19.453Z,2.44
2023-01-19T18:58:47.608Z,2.41
2023-01-19T19:01:27.416Z,2.35
2023-01-19T19:03:56.908Z,2.35
2023-01-19T19:06:26.998Z,2.36
2023-01-19T19:08:57.143Z,2.31
2023-01-19T19:11:26.543Z,2.43
2023-01-19T19:13:56.917Z,2.36
2023-01-19T19:16:26.189Z,2.35
2023-01-19T19:18:53.837Z,2.28
2023-01-19T19:21:24.054Z,2.29
2023-01-19T19:23:54.117Z,2.25
2023-01-19T19:26:23.633Z,2.37
2023-01-19T19:28:51.515Z,2.35
2023-01-19T19:31:22.220Z,2.44
2023-01-19T19:33:51.228Z,2.45
2023-01-19T19:36:21.031Z,2.32
2023-01-19T19:38:49.927Z,2.29
2023-01-19T19:41:20.855Z,2.30
2023-01-19T19:43:49.597Z,2.26
2023-01-19T19:46:20.090Z,2.27
2023-01-19T19:48:49.010Z,2.31
2023-01-19T19:51:22.753Z,2.25
2023-01-19T19:53:51.952Z,2.23
2023-01-19T19:56:22.209Z,2.19
2023-01-19T19:58:51.102Z,2.21
2023-01-19T20:01:21.563Z,2.18
2023-01-19T20:03:49.973Z,2.19
2023-01-19T20:06:21.222Z,2.14
2023-01-19T20:08:49.688Z,2.15
2023-01-19T20:11:20.420Z,2.22
2023-01-19T20:13:48.712Z,2.29
2023-01-19T20:16:18.870Z,2.21
2023-01-19T20:18:50.822Z,2.27
2023-01-19T20:21:20.032Z,2.38
2023-01-19T20:23:48.984Z,2.27
2023-01-19T20:26:19.094Z,2.30
2023-01-19T20:28:47.597Z,2.27
2023-01-19T20:31:22.411Z,2.27
2023-01-19T20:33:51.683Z,2.18
2023-01-19T20:36:19.714Z,2.17
2023-01-19T20:38:47.256Z,2.29
2023-01-19T20:41:15.639Z,2.20
2023-01-19T20:43:43.518Z,2.29
2023-01-19T20:46:12.042Z,2.31
2023-01-19T20:48:42.152Z,2.33
2023-01-19T20:51:12.369Z,2.35
2023-01-19T20:53:41.458Z,2.19
2023-01-19T20:56:14.241Z,2.10
2023-01-19T20:58:45.778Z,1.98
2023-01-19T21:01:16.785Z,2.04
2023-01-19T21:03:48.200Z,2.03
2023-01-19T21:06:18.930Z,2.04
2023-01-19T21:08:49.716Z,1.90
2023-01-19T21:11:21.357Z,1.96
2023-01-19T21:13:51.363Z,2.00
2023-01-19T21:16:18.931Z,2.10
2023-01-19T21:18:46.511Z,2.09
2023-01-19T21:21:28.980Z,2.06
2023-01-19T21:23:57.716Z,2.02
2023-01-19T21:26:25.816Z,1.95
2023-01-19T21:28:53.683Z,2.07
2023-01-19T21:31:27.071Z,2.07
2023-01-19T21:33:56.277Z,2.06
2023-01-19T21:36:24.744Z,1.95
2023-01-19T21:38:52.882Z,2.02
2023-01-19T21:41:20.845Z,1.98
2023-01-19T21:43:48.419Z,1.92
2023-01-19T21:46:21.443Z,1.98
2023-01-19T21:48:49.460Z,2.07
2023-01-19T21:51:16.947Z,2.04
2023-01-19T21:53:44.435Z,1.97
2023-01-19T21:56:12.252Z,1.93
2023-01-19T21:58:39.759Z,1.90
2023-01-19T22:01:13.733Z,1.80
2023-01-19T22:03:42.256Z,1.81
2023-01-19T22:06:12.606Z,1.81
2023-01-19T22:08:40.988Z,1.73
2023-01-19T22:11:11.104Z,1.73
2023-01-19T22:13:38.920Z,1.73
2023-01-19T22:16:12.141Z,1.72
2023-01-19T22:18:42.075Z,1.75
2023-01-19T22:21:21.413Z,1.64
2023-01-19T22:23:51.210Z,1.70
2023-01-19T22:26:18.925Z,1.69
2023-01-19T22:28:46.572Z,1.73
2023-01-19T22:31:16.555Z,1.77
2023-01-19T22:33:44.568Z,1.73
2023-01-19T22:36:23.051Z,1.71
2023-01-19T22:38:55.614Z,1.69
2023-01-19T22:41:25.652Z,1.68
2023-01-19T22:43:55.591Z,1.72
2023-01-19T22:46:28.462Z,1.72
2023-01-19T22:48:57.396Z,1.76
2023-01-19T22:51:25.970Z,1.79
2023-01-19T22:53:53.759Z,1.78
2023-01-19T22:56:26.763Z,1.74
2023-01-19T22:58:54.916Z,1.70
2023-01-19T23:01:25.445Z,1.77
2023-01-19T23:03:54.887Z,1.81
2023-01-19T23:06:25.151Z,1.87
2023-01-19T23:08:54.532Z,1.79
2023-01-19T23:11:25.318Z,1.79
2023-01-19T23:13:53.478Z,1.74
2023-01-19T23:16:21.351Z,1.69
2023-01-19T23:18:53.092Z,1.63
2023-01-19T23:21:22.613Z,1.66
2023-01-19T23:23:53.923Z,1.68
2023-01-19T23:26:22.915Z,1.64
2023-01-19T23:28:58.620Z,1.63
2023-01-19T23:31:31.678Z,1.59
2023-01-19T23:34:01.717Z,1.58
2023-01-19T23:36:31.280Z,1.59
2023-01-19T23:39:00.634Z,1.61
2023-01-19T23:41:30.385Z,1.57
2023-01-19T23:43:58.581Z,1.59
2023-01-19T23:46:26.478Z,1.56
2023-01-19T23:48:54.167Z,1.52
2023-01-19T23:51:24.413Z,1.58
2023-01-19T23:53:52.785Z,1.49
2023-01-19T23:56:26.339Z,1.48
2023-01-19T23:58:56.641Z,1.52
